Time;durP1;ratioP1;P1;durP2;ratioP2;P2;SDS_P1;SDS_P2;PMS_P1;PMS_P2;Temp;Humidity;BMP_temperature;BMP_pressure;BME280_temperature;BME280_humidity;BME280_pressure;Samples;Min_cycle;Max_cycle;Signal;HPM_P1;HPM_P2
2021/08/21 00:00:06;;;;;;;0.70;0.70;;;;;;;16.13;100.00;100474.56;5037787;28;20482;-83
2021/08/21 00:02:34;;;;;;;0.40;0.20;;;;;;;16.06;100.00;100469.59;5037342;28;20505;-84
2021/08/21 00:05:01;;;;;;;0.40;0.20;;;;;;;16.00;100.00;100473.41;5045492;28;20479;-84
2021/08/21 00:07:29;;;;;;;0.40;0.30;;;;;;;16.15;100.00;100472.66;5051762;28;20479;-83
2021/08/21 00:09:57;;;;;;;0.40;0.20;;;;;;;16.23;100.00;100462.44;5055528;28;20471;-82
2021/08/21 00:12:24;;;;;;;0.40;0.20;;;;;;;16.11;100.00;100475.59;5033627;28;20459;-83
2021/08/21 00:14:52;;;;;;;0.40;0.20;;;;;;;15.77;100.00;100473.66;5035805;28;20861;-83
2021/08/21 00:17:19;;;;;;;0.40;0.20;;;;;;;15.59;100.00;100459.25;5034284;28;20451;-84
2021/08/21 00:19:46;;;;;;;0.40;0.20;;;;;;;15.84;100.00;100462.56;5036677;28;20818;-84
2021/08/21 00:22:13;;;;;;;0.40;0.20;;;;;;;15.94;100.00;100454.94;5034872;28;20924;-83
2021/08/21 00:24:41;;;;;;;0.40;0.20;;;;;;;16.03;100.00;100475.06;5027129;28;20443;-85
2021/08/21 00:27:08;;;;;;;0.40;0.30;;;;;;;16.04;100.00;100477.72;5035539;28;20475;-85
2021/08/21 00:29:35;;;;;;;1.33;1.13;;;;;;;15.91;100.00;100460.47;5037362;28;20459;-83
2021/08/21 00:32:04;;;;;;;0.40;0.20;;;;;;;15.87;100.00;100459.72;5039649;28;20447;-84
2021/08/21 00:34:31;;;;;;;0.83;0.83;;;;;;;16.13;100.00;100479.06;5043311;28;20444;-83
2021/08/21 00:36:58;;;;;;;0.40;0.20;;;;;;;16.00;100.00;100474.28;5028694;28;20470;-84
2021/08/21 00:39:25;;;;;;;0.40;0.20;;;;;;;15.85;100.00;100461.59;5037629;28;20494;-84
2021/08/21 00:41:52;;;;;;;0.50;0.50;;;;;;;15.65;100.00;100462.56;5017912;28;20467;-84
2021/08/21 00:44:19;;;;;;;0.40;0.20;;;;;;;15.76;100.00;100466.53;5018016;28;20444;-84
2021/08/21 00:47:04;;;;;;;0.40;0.20;;;;;;;15.87;100.00;100469.56;5018572;28;20888;-84
2021/08/21 00:49:32;;;;;;;0.40;0.20;;;;;;;15.68;100.00;100459.72;5037369;28;20459;-83
2021/08/21 00:52:00;;;;;;;1.13;1.13;;;;;;;15.80;100.00;100463.66;5028380;28;20443;-84
2021/08/21 00:54:27;;;;;;;0.40;0.20;;;;;;;15.60;100.00;100464.56;5051454;28;20443;-84
2021/08/21 00:56:56;;;;;;;0.40;0.20;;;;;;;15.45;100.00;100467.06;5029711;28;20459;-84
2021/08/21 00:59:23;;;;;;;0.40;0.20;;;;;;;15.29;100.00;100461.53;5024345;28;20471;-84
2021/08/21 01:01:51;;;;;;;0.40;0.20;;;;;;;15.43;100.00;100467.13;5037033;28;20504;-84
2021/08/21 01:04:19;;;;;;;0.40;0.20;;;;;;;15.52;100.00;100472.06;5036857;28;20466;-84
2021/08/21 01:06:46;;;;;;;0.57;0.57;;;;;;;15.42;100.00;100468.06;5054416;28;21038;-84
2021/08/21 01:09:13;;;;;;;0.40;0.20;;;;;;;15.29;100.00;100470.44;5023596;28;20487;-83
2021/08/21 01:11:40;;;;;;;2.47;1.80;;;;;;;15.31;100.00;100465.88;5036691;28;20451;-83
2021/08/21 01:14:07;;;;;;;0.40;0.20;;;;;;;14.99;100.00;100464.63;5056144;28;20458;-83
2021/08/21 01:16:35;;;;;;;0.40;0.20;;;;;;;15.27;100.00;100458.94;5040541;28;20450;-83
2021/08/21 01:19:03;;;;;;;0.40;0.20;;;;;;;15.36;100.00;100463.00;5056361;28;20450;-83
2021/08/21 01:21:30;;;;;;;0.50;0.30;;;;;;;15.26;100.00;100456.31;5058117;28;21000;-84
2021/08/21 01:23:57;;;;;;;0.40;0.20;;;;;;;15.38;100.00;100463.81;5057618;28;20482;-83
2021/08/21 01:26:24;;;;;;;0.40;0.40;;;;;;;15.48;100.00;100462.41;5039845;28;20474;-83
2021/08/21 01:28:51;;;;;;;0.40;0.40;;;;;;;15.26;100.00;100465.22;5039152;28;20552;-83
2021/08/21 01:31:18;;;;;;;0.40;0.20;;;;;;;15.16;100.00;100466.56;5039897;28;20470;-83
2021/08/21 01:33:45;;;;;;;0.40;0.20;;;;;;;15.16;100.00;100463.03;5040175;28;20553;-83
2021/08/21 01:36:12;;;;;;;0.40;0.30;;;;;;;15.09;100.00;100465.97;5053522;28;20451;-83
2021/08/21 01:38:58;;;;;;;0.40;0.20;;;;;;;15.15;100.00;100461.28;5032977;28;20452;-83
2021/08/21 01:41:25;;;;;;;0.40;0.30;;;;;;;15.22;100.00;100452.91;5035462;28;20439;-83
2021/08/21 01:43:52;;;;;;;0.40;0.20;;;;;;;15.19;100.00;100453.03;5040184;28;20442;-83
2021/08/21 01:46:19;;;;;;;0.63;0.63;;;;;;;15.32;100.00;100456.91;5039892;28;20513;-83
2021/08/21 01:48:46;;;;;;;0.40;0.30;;;;;;;15.36;100.00;100450.47;5030218;28;20487;-83
2021/08/21 01:51:13;;;;;;;0.40;0.20;;;;;;;15.49;100.00;100431.13;5035252;28;20478;-84
2021/08/21 01:53:40;;;;;;;0.40;0.30;;;;;;;15.37;100.00;100421.88;5039809;28;20454;-83
2021/08/21 01:56:08;;;;;;;0.40;0.20;;;;;;;15.55;100.00;100447.81;5057172;28;20955;-83
2021/08/21 01:58:36;;;;;;;0.40;0.20;;;;;;;15.54;100.00;100454.13;5028924;28;20459;-83
2021/08/21 02:01:04;;;;;;;0.40;0.20;;;;;;;15.53;100.00;100428.25;5036520;28;20482;-83
2021/08/21 02:03:32;;;;;;;0.50;0.40;;;;;;;15.78;100.00;100437.88;5039587;28;20967;-84
2021/08/21 02:06:02;;;;;;;0.40;0.20;;;;;;;15.76;100.00;100450.44;5044614;28;20480;-84
2021/08/21 02:08:29;;;;;;;0.40;0.20;;;;;;;15.64;100.00;100450.09;5027332;28;20491;-84
2021/08/21 02:10:56;;;;;;;0.40;0.20;;;;;;;15.46;100.00;100450.03;5038309;28;20475;-84
2021/08/21 02:13:23;;;;;;;0.40;0.20;;;;;;;15.48;100.00;100442.78;5029289;28;20459;-84
2021/08/21 02:15:50;;;;;;;0.40;0.20;;;;;;;15.52;100.00;100450.63;5038486;28;20446;-84
2021/08/21 02:18:17;;;;;;;0.40;0.20;;;;;;;15.46;100.00;100448.22;5039701;28;20447;-84
2021/08/21 02:20:46;;;;;;;0.40;0.20;;;;;;;15.51;100.00;100443.53;5057341;28;20516;-83
2021/08/21 02:23:12;;;;;;;0.50;0.30;;;;;;;15.56;100.00;100443.31;5057001;28;20505;-84
2021/08/21 02:25:39;;;;;;;0.40;0.20;;;;;;;15.64;100.00;100441.19;5039264;28;20467;-83
2021/08/21 02:28:08;;;;;;;1.63;1.23;;;;;;;15.64;100.00;100434.03;5032126;28;20806;-83
2021/08/21 02:30:40;;;;;;;0.40;0.30;;;;;;;15.72;100.00;100432.78;5056870;28;20864;-83
2021/08/21 02:33:07;;;;;;;0.40;0.20;;;;;;;15.66;100.00;100429.47;5038231;28;20458;-83
2021/08/21 02:35:34;;;;;;;0.40;0.20;;;;;;;15.66;100.00;100428.59;5038903;28;20938;-83
2021/08/21 02:38:02;;;;;;;0.40;0.20;;;;;;;15.64;100.00;100436.72;5021434;28;20509;-84
2021/08/21 02:40:30;;;;;;;0.40;0.20;;;;;;;15.64;100.00;100430.47;5039237;28;20479;-84
2021/08/21 02:42:57;;;;;;;0.40;0.40;;;;;;;15.69;100.00;100432.00;5055040;28;20454;-84
2021/08/21 02:45:24;;;;;;;0.40;0.30;;;;;;;15.66;100.00;100426.78;5027743;28;20466;-83
2021/08/21 02:47:51;;;;;;;0.40;0.20;;;;;;;15.58;100.00;100423.53;5038774;28;20613;-82
2021/08/21 02:50:18;;;;;;;0.40;0.20;;;;;;;15.67;100.00;100435.69;5038440;28;20489;-82
2021/08/21 02:52:45;;;;;;;0.40;0.20;;;;;;;15.60;100.00;100432.41;5036352;28;20458;-83
2021/08/21 02:55:12;;;;;;;0.40;0.20;;;;;;;15.41;100.00;100424.34;5027830;28;20482;-83
2021/08/21 02:57:39;;;;;;;0.40;0.20;;;;;;;15.30;100.00;100409.69;5037989;28;20451;-83
2021/08/21 03:00:07;;;;;;;0.40;0.20;;;;;;;15.28;100.00;100423.16;5038936;28;20483;-83
2021/08/21 03:02:33;;;;;;;0.40;0.20;;;;;;;15.23;100.00;100416.28;5052725;28;20479;-83
2021/08/21 03:05:01;;;;;;;0.50;0.40;;;;;;;15.22;100.00;100422.59;5028209;28;20486;-83
2021/08/21 03:07:27;;;;;;;0.40;0.20;;;;;;;15.34;100.00;100427.34;5056491;28;20907;-83
2021/08/21 03:09:54;;;;;;;0.40;0.30;;;;;;;15.28;100.00;100425.84;5038275;28;20952;-83
2021/08/21 03:12:21;;;;;;;0.40;0.20;;;;;;;15.23;100.00;100410.94;5034428;28;20483;-82
2021/08/21 03:14:48;;;;;;;0.40;0.20;;;;;;;15.28;100.00;100422.28;5028262;28;20485;-82
2021/08/21 03:17:15;;;;;;;0.40;0.20;;;;;;;15.13;100.00;100412.28;5055908;28;20858;-83
2021/08/21 03:19:42;;;;;;;0.40;0.20;;;;;;;15.26;100.00;100424.19;5038224;28;21014;-83
2021/08/21 03:22:09;;;;;;;0.40;0.20;;;;;;;15.27;100.00;100423.25;5038189;28;20456;-83
2021/08/21 03:24:36;;;;;;;0.40;0.20;;;;;;;15.09;100.00;100403.53;5055907;28;20455;-83
2021/08/21 03:27:03;;;;;;;0.40;0.20;;;;;;;15.26;100.00;100424.19;5055612;28;20455;-82
2021/08/21 03:29:30;;;;;;;0.40;0.20;;;;;;;15.10;100.00;100408.81;5037852;28;20486;-82
2021/08/21 03:31:57;;;;;;;0.40;0.20;;;;;;;15.18;100.00;100432.53;5037868;28;20519;-83
2021/08/21 03:34:24;;;;;;;0.40;0.40;;;;;;;15.25;100.00;100435.84;5026715;28;21014;-83
2021/08/21 03:36:52;;;;;;;1.97;1.80;;;;;;;15.11;100.00;100423.94;5027315;28;20443;-83
2021/08/21 03:39:19;;;;;;;0.40;0.20;;;;;;;15.17;100.00;100433.50;5037845;28;20463;-83
2021/08/21 03:41:47;;;;;;;0.40;0.20;;;;;;;15.17;100.00;100433.50;5037256;28;20512;-83
2021/08/21 03:44:14;;;;;;;0.40;0.20;;;;;;;15.06;100.00;100430.41;5025896;28;20456;-83
2021/08/21 03:46:41;;;;;;;0.40;0.20;;;;;;;15.06;100.00;100430.41;5037234;28;20450;-83
2021/08/21 03:49:09;;;;;;;0.40;0.20;;;;;;;14.73;100.00;100417.59;5037724;28;20486;-83
2021/08/21 03:51:35;;;;;;;0.40;0.20;;;;;;;14.77;100.00;100424.56;5037573;28;20908;-82
2021/08/21 03:54:02;;;;;;;0.40;0.20;;;;;;;14.89;100.00;100428.50;5054911;28;20494;-83
2021/08/21 03:56:29;;;;;;;3.70;2.00;;;;;;;14.75;100.00;100423.75;5024573;28;20458;-82
2021/08/21 03:58:56;;;;;;;0.40;0.20;;;;;;;14.95;100.00;100414.88;5037505;28;20900;-83
2021/08/21 04:01:23;;;;;;;1.27;1.17;;;;;;;14.75;100.00;100414.84;5037157;28;20455;-82
2021/08/21 04:03:50;;;;;;;0.40;0.20;;;;;;;14.65;100.00;100418.84;5032755;28;20466;-83
2021/08/21 04:06:19;;;;;;;0.40;0.20;;;;;;;14.78;100.00;100412.03;5054939;28;20451;-82
2021/08/21 04:08:46;;;;;;;0.40;0.20;;;;;;;14.70;100.00;100407.03;5052508;28;20507;-82
2021/08/21 04:11:13;;;;;;;0.40;0.20;;;;;;;14.68;100.00;100424.09;5056082;28;20478;-82
2021/08/21 04:13:40;;;;;;;0.40;0.30;;;;;;;14.48;100.00;100407.09;5053101;28;20477;-82
2021/08/21 04:16:07;;;;;;;0.40;0.20;;;;;;;14.60;100.00;100428.91;5035518;28;20451;-82
2021/08/21 04:18:34;;;;;;;0.40;0.20;;;;;;;14.69;100.00;100434.72;5035382;28;20453;-83
2021/08/21 04:21:02;;;;;;;0.40;0.20;;;;;;;14.84;100.00;100437.69;5053740;28;20475;-83
2021/08/21 04:23:29;;;;;;;0.40;0.20;;;;;;;14.79;100.00;100429.84;5022963;28;20460;-83
2021/08/21 04:25:59;;;;;;;0.40;0.20;;;;;;;14.74;100.00;100445.22;5029490;28;20455;-83
2021/08/21 04:28:28;;;;;;;0.40;0.30;;;;;;;14.58;100.00;100431.66;5020740;28;20515;-83
2021/08/21 04:30:56;;;;;;;0.40;0.20;;;;;;;14.68;100.00;100437.47;5053742;28;20882;-83
2021/08/21 04:33:23;;;;;;;0.40;0.20;;;;;;;14.79;100.00;100444.06;5027947;28;20550;-83
2021/08/21 04:35:51;;;;;;;0.40;0.20;;;;;;;14.78;100.00;100439.66;5035292;28;20486;-83
2021/08/21 04:38:19;;;;;;;0.40;0.20;;;;;;;14.76;100.00;100438.00;5029373;28;20486;-83
2021/08/21 04:40:47;;;;;;;0.40;0.20;;;;;;;14.62;100.00;100429.69;5045359;28;20470;-83
2021/08/21 04:43:15;;;;;;;0.50;0.50;;;;;;;14.77;100.00;100447.75;5032405;28;20460;-83
2021/08/21 04:45:43;;;;;;;0.50;0.43;;;;;;;14.79;100.00;100451.25;5028042;28;20489;-83
2021/08/21 04:48:10;;;;;;;0.40;0.20;;;;;;;14.58;100.00;100449.50;5054582;28;20544;-82
2021/08/21 04:50:37;;;;;;;0.40;0.20;;;;;;;14.64;100.00;100452.78;5040220;28;20463;-83
2021/08/21 04:53:05;;;;;;;0.40;0.30;;;;;;;14.69;100.00;100463.31;5056424;28;20451;-82
2021/08/21 04:55:33;;;;;;;0.40;0.20;;;;;;;14.72;100.00;100472.06;5058216;28;20458;-82
2021/08/21 04:58:01;;;;;;;0.40;0.20;;;;;;;14.87;100.00;100465.16;5040461;28;20459;-83
2021/08/21 05:00:29;;;;;;;0.40;0.30;;;;;;;14.81;100.00;100466.31;5041201;28;20516;-83
2021/08/21 05:02:58;;;;;;;0.90;0.90;;;;;;;14.92;100.00;100462.28;5034415;28;21003;-83
2021/08/21 05:05:26;;;;;;;0.40;0.20;;;;;;;15.01;100.00;100468.13;5033305;28;20888;-83
2021/08/21 05:07:53;;;;;;;0.40;0.20;;;;;;;15.20;100.00;100468.16;5028502;28;20450;-84
2021/08/21 05:10:21;;;;;;;0.40;0.27;;;;;;;15.24;100.00;100471.59;5040536;28;20991;-83
2021/08/21 05:12:48;;;;;;;0.40;0.20;;;;;;;15.37;100.00;100462.94;5030219;28;20458;-83
2021/08/21 05:15:15;;;;;;;0.40;0.20;;;;;;;15.42;100.00;100462.72;5058025;28;20462;-84
2021/08/21 05:17:42;;;;;;;0.40;0.20;;;;;;;15.53;100.00;100465.78;5042794;28;20458;-84
2021/08/21 05:20:26;;;;;;;0.40;0.30;;;;;;;15.42;100.00;100465.41;5041615;28;20688;-84
2021/08/21 05:23:13;;;;;;;0.40;0.30;;;;;;;15.68;100.00;100454.38;5029703;28;20459;-84
2021/08/21 05:25:44;;;;;;;0.40;0.20;;;;;;;15.83;100.00;100450.09;5048002;28;20970;-83
2021/08/21 05:28:12;;;;;;;0.40;0.20;;;;;;;15.98;100.00;100448.50;5055927;28;20461;-84
2021/08/21 05:30:40;;;;;;;0.40;0.20;;;;;;;16.09;100.00;100456.03;5037760;28;20520;-84
2021/08/21 05:33:10;;;;;;;0.40;0.20;;;;;;;16.19;100.00;100449.28;5040746;28;20458;-83
2021/08/21 05:35:37;;;;;;;0.40;0.30;;;;;;;16.23;100.00;100446.34;5058053;28;20526;-84
2021/08/21 05:38:05;;;;;;;0.40;0.30;;;;;;;16.24;100.00;100441.84;5030340;28;20446;-84
2021/08/21 05:40:33;;;;;;;0.90;0.90;;;;;;;16.25;100.00;100440.91;5029340;28;20497;-84
2021/08/21 05:43:00;;;;;;;0.93;0.93;;;;;;;16.34;100.00;100442.28;5028382;28;20499;-84
2021/08/21 05:45:28;;;;;;;0.40;0.20;;;;;;;16.57;100.00;100442.84;5040641;28;20485;-83
2021/08/21 05:47:55;;;;;;;0.70;0.63;;;;;;;16.66;100.00;100443.31;5039855;28;20497;-83
2021/08/21 05:50:23;;;;;;;0.40;0.20;;;;;;;16.67;100.00;100447.75;5030450;28;21012;-84
2021/08/21 05:52:51;;;;;;;0.40;0.27;;;;;;;16.79;100.00;100437.28;5035951;28;20471;-83
2021/08/21 05:55:19;;;;;;;0.40;0.20;;;;;;;16.90;100.00;100442.09;5030031;28;20460;-84
2021/08/21 05:57:46;;;;;;;0.40;0.20;;;;;;;16.95;100.00;100456.13;5033478;28;20502;-82
2021/08/21 06:00:14;;;;;;;0.83;0.83;;;;;;;17.14;100.00;100453.38;5036903;28;20567;-82
2021/08/21 06:02:42;;;;;;;0.40;0.30;;;;;;;17.41;100.00;100454.59;5039032;28;20470;-82
2021/08/21 06:05:13;;;;;;;0.40;0.20;;;;;;;17.48;100.00;100455.97;5039767;28;20514;-85
2021/08/21 06:07:40;;;;;;;0.40;0.30;;;;;;;17.42;100.00;100436.63;5022419;28;20459;-84
2021/08/21 06:10:09;;;;;;;0.40;0.30;;;;;;;17.66;100.00;100440.63;5038626;28;20521;-83
2021/08/21 06:12:36;;;;;;;0.40;0.20;;;;;;;17.23;100.00;100444.81;5036027;28;20456;-83
2021/08/21 06:15:04;;;;;;;0.40;0.20;;;;;;;17.44;100.00;100449.03;5027818;28;20863;-84
2021/08/21 06:17:31;;;;;;;0.60;0.50;;;;;;;17.64;100.00;100433.63;5037777;28;20904;-83
2021/08/21 06:19:57;;;;;;;0.40;0.20;;;;;;;18.04;100.00;100456.50;5032664;28;20466;-85
2021/08/21 06:22:25;;;;;;;0.40;0.20;;;;;;;17.99;100.00;100427.16;5052978;28;20940;-82
2021/08/21 06:24:52;;;;;;;0.40;0.20;;;;;;;18.13;100.00;100455.97;5044488;28;20503;-82
2021/08/21 06:27:19;;;;;;;0.40;0.20;;;;;;;17.93;100.00;100457.09;5056419;28;20487;-84
2021/08/21 06:29:46;;;;;;;0.40;0.20;;;;;;;18.37;100.00;100467.16;5037954;28;20545;-83
2021/08/21 06:32:13;;;;;;;0.40;0.20;;;;;;;18.23;100.00;100450.94;5035984;28;20957;-83
2021/08/21 06:34:40;;;;;;;0.40;0.20;;;;;;;18.01;100.00;100460.22;5039025;28;20455;-83
2021/08/21 06:37:08;;;;;;;1.13;1.13;;;;;;;17.97;100.00;100461.38;5034073;28;20492;-82
2021/08/21 06:39:35;;;;;;;0.40;0.30;;;;;;;17.95;100.00;100468.63;5033226;28;20532;-83
2021/08/21 06:42:02;;;;;;;0.40;0.20;;;;;;;17.92;100.00;100455.34;5027171;28;20454;-83
2021/08/21 06:44:29;;;;;;;0.40;0.20;;;;;;;17.94;100.00;100457.94;5055749;28;20478;-83
2021/08/21 06:46:57;;;;;;;0.40;0.20;;;;;;;17.88;100.00;100466.38;5037867;28;20479;-83
2021/08/21 06:49:24;;;;;;;2.20;1.07;;;;;;;17.82;100.00;100459.53;5037481;28;20499;-83
2021/08/21 06:51:51;;;;;;;0.40;0.20;;;;;;;17.79;100.00;100459.69;5037744;28;20483;-83
2021/08/21 06:54:18;;;;;;;0.40;0.20;;;;;;;17.68;100.00;100470.13;5037853;28;20454;-83
2021/08/21 06:56:45;;;;;;;0.40;0.30;;;;;;;17.97;100.00;100458.66;5038611;28;20501;-83
2021/08/21 06:59:12;;;;;;;0.40;0.20;;;;;;;18.10;100.00;100468.75;5037733;28;20833;-83
2021/08/21 07:01:39;;;;;;;0.40;0.20;;;;;;;18.26;100.00;100442.69;5055633;28;20489;-83
2021/08/21 07:04:07;;;;;;;0.57;0.57;;;;;;;18.26;100.00;100464.22;5037410;28;20444;-83
2021/08/21 07:06:34;;;;;;;0.40;0.20;;;;;;;18.43;100.00;100460.53;5037615;28;20451;-83
2021/08/21 07:09:00;;;;;;;0.63;0.63;;;;;;;18.53;100.00;100461.75;5037455;28;20457;-83
2021/08/21 07:11:27;;;;;;;0.40;0.20;;;;;;;18.76;100.00;100452.31;5054147;28;20877;-83
2021/08/21 07:13:54;;;;;;;0.53;0.53;;;;;;;18.85;100.00;100455.34;5054939;28;20455;-83
2021/08/21 07:16:22;;;;;;;0.40;0.20;;;;;;;18.88;100.00;100443.50;5055354;28;20489;-84
2021/08/21 07:18:49;;;;;;;0.40;0.20;;;;;;;18.92;100.00;100461.25;5037294;28;20449;-83
2021/08/21 07:21:16;;;;;;;0.50;0.30;;;;;;;19.37;100.00;100454.84;5037339;28;20474;-83
2021/08/21 07:23:43;;;;;;;0.40;0.20;;;;;;;19.64;100.00;100452.28;5055069;28;20508;-83
2021/08/21 07:26:10;;;;;;;0.40;0.20;;;;;;;20.12;98.36;100450.91;5054406;28;20451;-83
2021/08/21 07:28:36;;;;;;;2.20;1.27;;;;;;;19.56;99.92;100462.66;5036824;28;20443;-83
2021/08/21 07:31:04;;;;;;;0.40;0.20;;;;;;;19.55;100.00;100465.47;5037200;28;20501;-83
2021/08/21 07:33:30;;;;;;;0.40;0.30;;;;;;;19.20;100.00;100455.91;5036763;28;20898;-83
2021/08/21 07:35:58;;;;;;;0.40;0.20;;;;;;;19.64;99.74;100444.19;5035321;28;20417;-83
2021/08/21 07:38:24;;;;;;;0.40;0.30;;;;;;;19.46;99.48;100429.13;5034693;28;20516;-83
2021/08/21 07:40:51;;;;;;;0.40;0.20;;;;;;;19.79;99.64;100455.81;5036571;28;20474;-84
2021/08/21 07:43:19;;;;;;;0.40;0.20;;;;;;;19.99;97.94;100446.44;5036829;28;20508;-83
2021/08/21 07:45:46;;;;;;;0.40;0.20;;;;;;;20.40;98.14;100443.69;5037246;28;20497;-83
2021/08/21 07:48:17;;;;;;;3.43;0.77;;;;;;;20.34;97.75;100453.09;5054054;28;20425;-83
2021/08/21 07:50:44;;;;;;;0.40;0.20;;;;;;;20.17;98.17;100430.88;5054332;28;20547;-83
2021/08/21 07:53:11;;;;;;;0.50;0.47;;;;;;;20.93;95.92;100444.63;5036945;28;20425;-83
2021/08/21 07:55:39;;;;;;;0.40;0.30;;;;;;;20.95;95.41;100458.91;5037326;28;20512;-83
2021/08/21 07:58:06;;;;;;;0.40;0.23;;;;;;;21.53;93.23;100453.03;5016672;28;20435;-83
2021/08/21 08:00:33;;;;;;;0.40;0.30;;;;;;;21.03;94.63;100455.66;5029173;28;20494;-83
2021/08/21 08:03:01;;;;;;;0.40;0.30;;;;;;;21.03;96.06;100445.72;5055436;28;20507;-83
2021/08/21 08:05:28;;;;;;;0.40;0.20;;;;;;;21.49;94.46;100450.63;5053684;28;20452;-83
2021/08/21 08:07:55;;;;;;;0.40;0.20;;;;;;;21.04;94.84;100438.47;5024418;28;20435;-83
2021/08/21 08:10:22;;;;;;;0.50;0.30;;;;;;;20.93;96.07;100439.22;5054366;28;20473;-83
2021/08/21 08:12:50;;;;;;;0.40;0.30;;;;;;;21.74;94.35;100434.34;5036118;28;20479;-83
2021/08/21 08:15:17;;;;;;;0.40;0.20;;;;;;;22.14;92.45;100431.47;5053604;28;20448;-83
2021/08/21 08:17:45;;;;;;;0.40;0.20;;;;;;;22.05;91.24;100443.81;5036441;28;20455;-83
2021/08/21 08:20:12;;;;;;;0.40;0.30;;;;;;;22.12;90.29;100442.41;5035992;28;20519;-83
2021/08/21 08:22:40;;;;;;;0.40;0.20;;;;;;;22.05;91.07;100446.53;5037096;28;20418;-83
2021/08/21 08:25:07;;;;;;;0.40;0.30;;;;;;;21.86;92.00;100447.00;5040195;28;20453;-83
2021/08/21 08:27:34;;;;;;;0.40;0.20;;;;;;;22.62;90.40;100445.88;5040243;28;20451;-83
2021/08/21 08:30:03;;;;;;;0.40;0.20;;;;;;;22.49;88.47;100447.78;5057433;28;20494;-82
2021/08/21 08:32:30;;;;;;;0.40;0.30;;;;;;;22.49;84.31;100444.22;5041248;28;20449;-83
2021/08/21 08:34:57;;;;;;;0.40;0.30;;;;;;;22.54;85.14;100444.72;5057619;28;20467;-82
2021/08/21 08:37:24;;;;;;;0.40;0.20;;;;;;;22.50;84.56;100440.53;5036113;28;20450;-83
2021/08/21 08:39:51;;;;;;;0.40;0.20;;;;;;;22.59;84.58;100434.38;5040624;28;20462;-82
2021/08/21 08:42:21;;;;;;;0.40;0.30;;;;;;;22.57;83.80;100439.06;5039937;28;20422;-82
2021/08/21 08:44:48;;;;;;;0.50;0.40;;;;;;;22.81;82.48;100430.91;5057674;28;20954;-82
2021/08/21 08:47:17;;;;;;;0.40;0.30;;;;;;;23.03;82.42;100433.72;5036750;28;20440;-82
2021/08/21 08:49:47;;;;;;;0.40;0.20;;;;;;;22.69;81.40;100430.00;5052599;28;20469;-82
2021/08/21 08:52:15;;;;;;;0.40;0.30;;;;;;;22.97;81.15;100437.75;5049915;28;20453;-83
2021/08/21 08:54:42;;;;;;;0.50;0.47;;;;;;;22.82;80.45;100438.91;5044157;28;20413;-83
2021/08/21 08:57:16;;;;;;;0.40;0.20;;;;;;;23.00;81.11;100437.50;5032247;28;20448;-82
2021/08/21 08:59:44;;;;;;;0.40;0.20;;;;;;;23.11;80.35;100444.81;5047920;28;20462;-83
2021/08/21 09:02:11;;;;;;;0.40;0.23;;;;;;;23.24;78.36;100445.59;5043524;28;20485;-83
2021/08/21 09:04:41;;;;;;;0.40;0.20;;;;;;;23.10;79.34;100444.94;5061455;28;20438;-83
2021/08/21 09:07:09;;;;;;;0.40;0.30;;;;;;;23.69;78.33;100442.06;5060942;28;20479;-83
2021/08/21 09:09:36;;;;;;;0.40;0.20;;;;;;;23.17;78.51;100435.34;5060142;28;20527;-83
2021/08/21 09:12:22;;;;;;;0.50;0.30;;;;;;;23.62;77.78;100441.72;5060942;28;20425;-83
2021/08/21 09:14:48;;;;;;;0.40;0.30;;;;;;;23.34;78.71;100441.16;5059572;28;20432;-83
2021/08/21 09:17:18;;;;;;;0.40;0.20;;;;;;;23.46;78.05;100433.91;5042429;28;20462;-83
2021/08/21 09:19:46;;;;;;;0.50;0.20;;;;;;;23.67;78.23;100439.47;5041751;28;20520;-83
2021/08/21 09:22:14;;;;;;;0.50;0.40;;;;;;;23.80;76.55;100432.06;5041939;28;20495;-83
2021/08/21 09:24:42;;;;;;;20.03;0.80;;;;;;;23.82;76.83;100430.09;5059700;28;20425;-83
2021/08/21 09:27:17;;;;;;;0.50;0.30;;;;;;;23.99;76.35;100428.72;5036757;28;20438;-83
2021/08/21 09:29:44;;;;;;;0.40;0.30;;;;;;;24.29;74.83;100429.88;5033898;28;20499;-83
2021/08/21 09:32:12;;;;;;;1.07;0.77;;;;;;;24.35;74.35;100432.09;5044910;28;20456;-80
2021/08/21 09:34:39;;;;;;;0.50;0.30;;;;;;;24.12;74.13;100426.72;5057904;28;20417;-80
2021/08/21 09:37:09;;;;;;;0.40;0.30;;;;;;;24.57;74.48;100415.72;5037782;28;20469;-79
2021/08/21 09:39:41;;;;;;;1.37;1.33;;;;;;;24.81;72.69;100420.94;5080143;28;20458;-82
2021/08/21 09:42:10;;;;;;;0.70;0.70;;;;;;;24.83;71.35;100418.06;5061993;28;20422;-81
2021/08/21 09:44:40;;;;;;;0.87;0.87;;;;;;;24.90;72.89;100416.53;5041567;28;20425;-80
2021/08/21 09:47:25;;;;;;;0.40;0.20;;;;;;;24.49;72.15;100415.50;5041240;28;20463;-80
2021/08/21 09:49:53;;;;;;;0.40;0.20;;;;;;;25.10;72.49;100407.56;5058744;28;20495;-82
2021/08/21 09:52:20;;;;;;;0.53;0.53;;;;;;;25.17;72.65;100406.00;5058518;28;20464;-82
2021/08/21 09:55:05;;;;;;;0.40;0.30;;;;;;;24.99;72.22;100405.72;5039607;28;20884;-80
2021/08/21 09:57:33;;;;;;;0.50;0.40;;;;;;;25.00;71.83;100399.31;5058184;28;20483;-80
2021/08/21 10:00:01;;;;;;;0.60;0.50;;;;;;;24.92;72.35;100401.81;5040332;28;20454;-81
2021/08/21 10:02:32;;;;;;;0.57;0.43;;;;;;;25.35;71.16;100392.63;5057123;28;20486;-80
2021/08/21 10:05:01;;;;;;;0.40;0.30;;;;;;;25.23;71.23;100393.75;5039645;28;20537;-80
2021/08/21 10:07:37;;;;;;;4.30;0.97;;;;;;;25.30;70.12;100397.63;5038377;28;20426;-80
2021/08/21 10:10:07;;;;;;;0.40;0.30;;;;;;;25.20;70.36;100396.72;5056401;28;20469;-80
2021/08/21 10:12:36;;;;;;;0.40;0.30;;;;;;;25.11;70.39;100401.13;5038915;28;20867;-80
2021/08/21 10:15:04;;;;;;;0.50;0.50;;;;;;;25.44;69.95;100402.72;5056381;28;20828;-81
2021/08/21 10:17:34;;;;;;;0.40;0.30;;;;;;;25.29;68.63;100394.03;5056658;28;20417;-81
2021/08/21 10:20:02;;;;;;;0.40;0.30;;;;;;;25.66;69.20;100396.22;5038584;28;20433;-81
2021/08/21 10:22:30;;;;;;;0.50;0.40;;;;;;;25.87;66.58;100393.44;5055613;28;20417;-81
2021/08/21 10:25:08;;;;;;;1.23;1.13;;;;;;;25.47;68.40;100390.69;5039883;28;20442;-81
2021/08/21 10:27:35;;;;;;;2.73;2.30;;;;;;;25.92;66.93;100386.59;5033185;28;20454;-80
2021/08/21 10:30:14;;;;;;;0.50;0.30;;;;;;;26.03;67.09;100395.63;5054085;28;20533;-80
2021/08/21 10:32:56;;;;;;;1.03;1.03;;;;;;;26.09;67.56;100393.22;5054271;28;20812;-80
2021/08/21 10:35:47;;;;;;;0.50;0.30;;;;;;;26.76;65.62;100383.34;5053854;28;20414;-80
2021/08/21 10:38:29;;;;;;;0.47;0.30;;;;;;;26.35;65.71;100382.63;5032554;28;20425;-81
2021/08/21 10:41:09;;;;;;;0.50;0.30;;;;;;;26.74;66.03;100386.25;5036620;28;20544;-80
2021/08/21 10:43:50;;;;;;;0.40;0.30;;;;;;;26.57;64.14;100376.03;5036682;28;20432;-80
2021/08/21 10:46:29;;;;;;;0.50;0.30;;;;;;;26.50;63.61;100375.78;5036463;28;20500;-80
2021/08/21 10:49:03;;;;;;;0.40;0.20;;;;;;;25.90;64.83;100371.34;5036381;28;20497;-81
2021/08/21 10:51:40;;;;;;;0.67;0.67;;;;;;;25.69;65.77;100377.75;5053432;28;20959;-80
2021/08/21 10:54:26;;;;;;;1.73;0.90;;;;;;;26.06;65.40;100371.69;5036556;28;20442;-81
2021/08/21 10:56:54;;;;;;;0.50;0.30;;;;;;;25.78;65.04;100369.78;5043188;28;20525;-80
2021/08/21 10:59:44;;;;;;;0.50;0.30;;;;;;;26.60;64.36;100375.78;5026638;28;20453;-81
2021/08/21 11:02:28;;;;;;;0.47;0.30;;;;;;;26.45;63.71;100374.47;5029009;28;20471;-81
2021/08/21 11:04:56;;;;;;;0.50;0.33;;;;;;;25.95;64.63;100363.63;5036108;28;20447;-81
2021/08/21 11:07:43;;;;;;;0.50;0.40;;;;;;;26.68;64.77;100364.13;5035580;28;20433;-81
2021/08/21 11:10:29;;;;;;;0.53;0.47;;;;;;;26.33;64.04;100361.97;5035339;28;20461;-81
2021/08/21 11:12:56;;;;;;;0.40;0.30;;;;;;;26.73;63.07;100367.28;5053741;28;20479;-81
2021/08/21 11:15:33;;;;;;;0.67;0.60;;;;;;;27.18;61.40;100353.00;5035671;28;20418;-81
2021/08/21 11:18:02;;;;;;;0.50;0.40;;;;;;;26.62;63.16;100351.06;5035753;28;20846;-80
2021/08/21 11:20:34;;;;;;;0.43;0.30;;;;;;;26.77;63.51;100346.88;5052732;28;20437;-80
2021/08/21 11:23:07;;;;;;;1.07;1.07;;;;;;;26.88;61.86;100351.31;5035882;28;20406;-81
2021/08/21 11:25:42;;;;;;;0.50;0.30;;;;;;;26.50;62.88;100347.63;5053251;28;20464;-81